createdAt,value
2019-04-30T00:00:20.830Z,86.90
2019-04-30T00:02:55.166Z,86.40
2019-04-30T00:05:25.151Z,86.50
2019-04-30T00:07:57.423Z,86.50
2019-04-30T00:10:35.948Z,87.60
2019-04-30T00:12:58.426Z,86.50
2019-04-30T00:15:28.068Z,86.80
2019-04-30T00:18:01.330Z,86.90
2019-04-30T00:20:30.109Z,87.20
2019-04-30T00:22:59.380Z,87.40
2019-04-30T00:25:28.725Z,86.90
2019-04-30T00:28:00.393Z,87.40
2019-04-30T00:30:29.132Z,87.50
2019-04-30T00:32:58.452Z,87.70
2019-04-30T00:35:27.736Z,87.80
2019-04-30T00:38:00.114Z,88.00
2019-04-30T00:40:30.086Z,88.40
2019-04-30T00:43:05.263Z,87.80
2019-04-30T00:45:40.049Z,88.30
2019-04-30T00:48:08.316Z,88.00
2019-04-30T00:50:38.939Z,87.50
2019-04-30T00:53:12.566Z,87.50
2019-04-30T00:55:46.771Z,88.00
2019-04-30T00:58:17.714Z,88.30
2019-04-30T01:00:59.747Z,88.10
2019-04-30T01:03:30.144Z,88.30
2019-04-30T01:05:59.453Z,87.60
2019-04-30T01:08:28.798Z,87.60
2019-04-30T01:10:59.707Z,87.80
2019-04-30T01:13:29.316Z,87.40
2019-04-30T01:15:58.837Z,87.60
2019-04-30T01:18:31.905Z,87.80
2019-04-30T01:21:02.883Z,88.60
2019-04-30T01:23:30.590Z,87.90
2019-04-30T01:26:00.084Z,88.10
2019-04-30T01:28:29.494Z,89.40
2019-04-30T01:31:01.944Z,89.00
2019-04-30T01:33:34.534Z,88.80
2019-04-30T01:36:04.158Z,88.40
2019-04-30T01:38:32.846Z,88.20
2019-04-30T01:41:02.311Z,88.80
2019-04-30T01:43:34.507Z,89.50
2019-04-30T01:46:09.414Z,89.70
2019-04-30T01:48:33.760Z,90.40
2019-04-30T01:51:03.072Z,90.10
2019-04-30T01:53:32.534Z,90.40
2019-04-30T01:56:19.822Z,90.10
2019-04-30T01:58:56.810Z,90.30
2019-04-30T02:01:31.289Z,90.70
2019-04-30T02:04:00.632Z,90.60
2019-04-30T02:06:30.055Z,90.10
2019-04-30T02:08:59.436Z,90.20
2019-04-30T02:11:28.962Z,90.00
2019-04-30T02:14:01.501Z,89.30
2019-04-30T02:16:32.616Z,89.30
2019-04-30T02:19:02.038Z,88.90
2019-04-30T02:21:33.348Z,88.70
2019-04-30T02:24:03.464Z,88.90
2019-04-30T02:26:32.855Z,89.20
2019-04-30T02:29:02.838Z,89.20
2019-04-30T02:31:34.646Z,89.40
2019-04-30T02:34:11.364Z,89.30
2019-04-30T02:36:45.393Z,89.70
2019-04-30T02:39:14.762Z,89.70
2019-04-30T02:41:46.539Z,89.20
2019-04-30T02:44:19.623Z,90.00
2019-04-30T02:46:51.911Z,89.30
2019-04-30T02:49:22.564Z,89.70
2019-04-30T02:51:53.397Z,89.30
2019-04-30T02:54:25.207Z,90.10
2019-04-30T02:56:56.283Z,90.10
2019-04-30T02:59:25.573Z,89.40
2019-04-30T03:01:54.902Z,89.10
2019-04-30T03:04:24.308Z,90.00
2019-04-30T03:06:53.612Z,90.00
2019-04-30T03:09:23.016Z,89.40
2019-04-30T03:11:52.507Z,88.80
2019-04-30T03:14:24.637Z,89.10
2019-04-30T03:16:55.562Z,89.40
2019-04-30T03:19:41.775Z,90.00
2019-04-30T03:22:15.464Z,89.70
2019-04-30T03:24:50.084Z,90.00
2019-04-30T03:27:21.047Z,90.00
2019-04-30T03:29:50.433Z,90.00
2019-04-30T03:32:22.274Z,90.10
2019-04-30T03:34:51.857Z,90.00
2019-04-30T03:37:21.633Z,89.90
2019-04-30T03:39:51.065Z,89.70
2019-04-30T03:42:20.352Z,89.50
2019-04-30T03:44:49.949Z,90.00
2019-04-30T03:47:20.241Z,89.40
2019-04-30T03:49:50.149Z,89.80
2019-04-30T03:52:19.875Z,89.40
2019-04-30T03:54:50.559Z,90.10
2019-04-30T03:57:25.602Z,89.70
2019-04-30T03:59:54.983Z,89.40
2019-04-30T04:02:25.939Z,90.20
2019-04-30T04:04:56.870Z,90.10
2019-04-30T04:07:31.121Z,90.20
2019-04-30T04:10:02.054Z,90.00
2019-04-30T04:12:33.231Z,90.10
2019-04-30T04:15:03.897Z,90.30
2019-04-30T04:17:35.488Z,90.00
2019-04-30T04:20:10.260Z,89.90
2019-04-30T04:22:40.347Z,90.30
2019-04-30T04:25:13.200Z,90.20
2019-04-30T04:27:42.340Z,90.70
2019-04-30T04:30:12.036Z,90.20
2019-04-30T04:32:41.573Z,90.20
2019-04-30T04:35:12.815Z,90.10
2019-04-30T04:37:42.115Z,89.90
2019-04-30T04:40:11.640Z,89.90
2019-04-30T04:42:43.709Z,89.90
2019-04-30T04:45:14.603Z,90.30
2019-04-30T04:47:43.908Z,89.90
2019-04-30T04:50:13.619Z,90.10
2019-04-30T04:52:42.932Z,90.20
2019-04-30T04:55:12.523Z,90.10
2019-04-30T04:57:41.853Z,90.50
2019-04-30T05:00:11.559Z,90.80
2019-04-30T05:02:49.775Z,90.20
2019-04-30T05:05:19.494Z,90.10
2019-04-30T05:07:48.959Z,90.10
2019-04-30T05:10:19.346Z,90.20
2019-04-30T05:12:50.587Z,90.20
2019-04-30T05:15:21.515Z,90.20
2019-04-30T05:17:50.845Z,90.00
2019-04-30T05:20:20.217Z,90.00
2019-04-30T05:22:49.547Z,90.00
2019-04-30T05:25:18.911Z,89.60
2019-04-30T05:27:48.863Z,89.60
2019-04-30T05:30:19.828Z,89.40
2019-04-30T05:32:50.872Z,89.10
2019-04-30T05:35:20.361Z,89.20
2019-04-30T05:37:49.659Z,89.10
2019-04-30T05:40:19.116Z,89.30
2019-04-30T05:42:49.611Z,89.60
2019-04-30T05:45:19.381Z,89.20
2019-04-30T05:47:50.496Z,89.30
2019-04-30T05:50:20.116Z,89.30
2019-04-30T05:52:50.789Z,89.40
2019-04-30T05:55:20.103Z,89.60
2019-04-30T05:57:55.924Z,89.40
2019-04-30T06:00:21.200Z,89.50
2019-04-30T06:02:51.259Z,89.50
2019-04-30T06:05:23.663Z,89.40
2019-04-30T06:07:55.493Z,89.40
2019-04-30T06:10:29.573Z,88.80
2019-04-30T06:13:00.574Z,89.40
2019-04-30T06:15:34.972Z,89.70
2019-04-30T06:18:12.840Z,89.60
2019-04-30T06:20:35.457Z,89.60
2019-04-30T06:23:04.971Z,89.70
2019-04-30T06:25:54.845Z,90.00
2019-04-30T06:28:05.787Z,89.80
2019-04-30T06:30:35.635Z,90.00
2019-04-30T06:33:05.022Z,89.90
2019-04-30T06:35:34.525Z,89.90
2019-04-30T06:38:04.157Z,89.90
2019-04-30T06:40:33.683Z,90.00
2019-04-30T06:43:03.319Z,90.00
2019-04-30T06:45:33.004Z,90.00
2019-04-30T06:48:04.340Z,90.00
2019-04-30T06:50:33.695Z,90.00
2019-04-30T06:53:05.853Z,90.00
2019-04-30T06:55:35.223Z,90.00
2019-04-30T06:58:14.721Z,90.10
2019-04-30T07:00:39.593Z,90.10
2019-04-30T07:03:09.675Z,90.10
2019-04-30T07:05:39.404Z,90.10
2019-04-30T07:08:37.369Z,90.10
2019-04-30T07:11:15.574Z,90.20
2019-04-30T07:13:46.500Z,90.40
2019-04-30T07:16:15.871Z,90.60
2019-04-30T07:18:45.617Z,90.50
2019-04-30T07:21:15.110Z,90.10
2019-04-30T07:23:44.709Z,90.30
2019-04-30T07:26:22.712Z,90.10
2019-04-30T07:28:54.080Z,90.10
2019-04-30T07:31:19.357Z,90.00
2019-04-30T07:33:53.120Z,90.10
2019-04-30T07:36:19.852Z,89.80
2019-04-30T07:38:54.509Z,88.90
2019-04-30T07:41:23.006Z,89.60
2019-04-30T07:43:52.291Z,89.10
2019-04-30T07:46:21.624Z,89.50
2019-04-30T07:48:53.614Z,89.70
2019-04-30T07:51:23.551Z,88.70
2019-04-30T07:53:53.350Z,88.20
2019-04-30T07:56:28.043Z,87.30
2019-04-30T07:58:53.749Z,88.10
2019-04-30T08:01:23.103Z,86.60
2019-04-30T08:03:58.869Z,87.30
2019-04-30T08:06:31.013Z,87.80
2019-04-30T08:09:01.079Z,88.10
2019-04-30T08:11:34.472Z,87.50
2019-04-30T08:14:02.016Z,87.70
2019-04-30T08:16:31.775Z,88.50
2019-04-30T08:19:01.137Z,88.80
2019-04-30T08:21:30.574Z,88.60
2019-04-30T08:24:01.075Z,88.70
2019-04-30T08:26:30.639Z,87.80
2019-04-30T08:28:59.996Z,86.70
2019-04-30T08:31:29.397Z,86.40
2019-04-30T08:33:59.230Z,86.80
2019-04-30T08:36:29.853Z,86.70
2019-04-30T08:38:59.809Z,86.60
2019-04-30T08:41:29.503Z,86.00
2019-04-30T08:43:59.836Z,86.30
2019-04-30T08:46:29.911Z,85.40
2019-04-30T08:49:00.913Z,85.60
2019-04-30T08:51:31.963Z,85.90
2019-04-30T08:54:02.055Z,85.90
2019-04-30T08:56:34.174Z,86.40
2019-04-30T08:59:03.631Z,87.00
2019-04-30T09:01:32.986Z,87.60
2019-04-30T09:04:02.278Z,86.40
2019-04-30T09:06:31.760Z,86.10
2019-04-30T09:09:10.704Z,87.70
2019-04-30T09:11:49.952Z,86.20
2019-04-30T09:14:09.271Z,84.60
2019-04-30T09:16:41.397Z,84.90
2019-04-30T09:19:15.509Z,85.20
2019-04-30T09:21:44.803Z,85.30
2019-04-30T09:24:14.158Z,86.20
2019-04-30T09:26:45.938Z,84.20
2019-04-30T09:29:15.251Z,84.40
2019-04-30T09:31:44.618Z,85.50
2019-04-30T09:34:17.754Z,85.70
2019-04-30T09:36:44.906Z,86.40
2019-04-30T09:39:14.214Z,83.90
2019-04-30T09:41:46.558Z,83.80
2019-04-30T09:44:15.930Z,83.90
2019-04-30T09:46:48.906Z,84.40
2019-04-30T09:49:19.440Z,83.50
2019-04-30T09:51:49.827Z,84.00
2019-04-30T09:54:20.259Z,82.50
2019-04-30T09:56:52.600Z,83.10
2019-04-30T09:59:20.973Z,84.20
2019-04-30T10:01:50.340Z,82.50
2019-04-30T10:04:20.670Z,82.00
2019-04-30T10:06:50.578Z,83.20
2019-04-30T10:09:20.052Z,83.00
2019-04-30T10:11:59.437Z,83.60
2019-04-30T10:14:30.297Z,83.90
2019-04-30T10:17:18.993Z,82.80
2019-04-30T10:19:49.185Z,82.70
2019-04-30T10:22:18.743Z,82.80
2019-04-30T10:24:51.264Z,81.50
2019-04-30T10:27:20.682Z,82.90
2019-04-30T10:29:50.216Z,82.10
2019-04-30T10:32:19.637Z,80.00
2019-04-30T10:34:49.106Z,80.40
2019-04-30T10:37:18.992Z,81.40
2019-04-30T10:39:48.986Z,81.50
2019-04-30T10:42:18.438Z,81.40
2019-04-30T10:44:47.752Z,81.00
2019-04-30T10:47:19.164Z,82.40
2019-04-30T10:49:48.695Z,82.20
2019-04-30T10:52:19.218Z,82.20
2019-04-30T10:54:49.628Z,81.80
2019-04-30T10:57:19.115Z,80.60
2019-04-30T10:59:48.756Z,81.30
2019-04-30T11:02:18.174Z,81.00
2019-04-30T11:04:47.527Z,81.30
2019-04-30T11:07:18.539Z,80.60
2019-04-30T11:09:49.318Z,80.50
2019-04-30T11:12:19.346Z,80.70
2019-04-30T11:14:48.710Z,80.70
2019-04-30T11:17:19.745Z,80.70
2019-04-30T11:19:49.324Z,81.00
2019-04-30T11:22:19.037Z,80.30
2019-04-30T11:24:58.894Z,81.00
2019-04-30T11:27:20.670Z,80.90
2019-04-30T11:29:52.319Z,80.90
2019-04-30T11:32:23.889Z,81.10
2019-04-30T11:34:53.334Z,81.50
2019-04-30T11:37:23.622Z,80.70
2019-04-30T11:39:52.941Z,81.10
2019-04-30T11:42:24.946Z,81.20
2019-04-30T11:44:54.266Z,80.80
2019-04-30T11:47:24.578Z,80.60
2019-04-30T11:49:54.134Z,80.50
2019-04-30T11:52:25.234Z,80.30
2019-04-30T11:54:54.879Z,79.30
2019-04-30T11:57:24.331Z,80.20
2019-04-30T11:59:53.768Z,80.60
2019-04-30T12:02:29.620Z,80.10
2019-04-30T12:04:59.038Z,81.10
2019-04-30T12:07:30.082Z,80.40
2019-04-30T12:10:05.502Z,79.70
2019-04-30T12:12:35.154Z,79.90
2019-04-30T12:15:09.375Z,80.00
2019-04-30T12:17:38.718Z,80.50
2019-04-30T12:20:08.704Z,79.50
2019-04-30T12:22:41.094Z,79.60
2019-04-30T12:25:10.547Z,79.30
2019-04-30T12:27:39.834Z,79.10
2019-04-30T12:30:11.482Z,79.00
2019-04-30T12:32:40.772Z,79.70
2019-04-30T12:35:11.894Z,78.20
2019-04-30T12:37:43.850Z,77.80
2019-04-30T12:40:25.814Z,77.90
2019-04-30T12:42:48.636Z,77.70
2019-04-30T12:45:19.464Z,78.60
2019-04-30T12:47:50.492Z,78.90
2019-04-30T12:50:22.372Z,79.60
2019-04-30T12:52:59.626Z,78.10
2019-04-30T12:55:39.832Z,78.00
2019-04-30T12:58:12.030Z,77.30
2019-04-30T13:00:44.624Z,78.80
2019-04-30T13:03:13.951Z,77.70
2019-04-30T13:05:46.411Z,79.10
2019-04-30T13:08:17.760Z,79.30
2019-04-30T13:10:49.182Z,79.60
2019-04-30T13:13:21.549Z,78.50
2019-04-30T13:15:51.439Z,77.40
2019-04-30T13:18:23.483Z,78.90
2019-04-30T13:20:53.277Z,78.50
2019-04-30T13:23:24.184Z,77.60
2019-04-30T13:25:56.037Z,77.10
2019-04-30T13:28:27.103Z,75.90
2019-04-30T13:30:56.498Z,77.90
2019-04-30T13:33:28.833Z,77.20
2019-04-30T13:36:02.093Z,78.90
2019-04-30T13:38:47.451Z,78.20
2019-04-30T13:41:20.926Z,76.30
2019-04-30T13:43:54.808Z,77.90
2019-04-30T13:46:25.835Z,78.50
2019-04-30T13:48:55.129Z,76.90
2019-04-30T13:51:24.479Z,77.20
2019-04-30T13:53:56.630Z,76.50
2019-04-30T13:56:26.014Z,76.90
2019-04-30T13:58:55.314Z,76.60
2019-04-30T14:01:24.788Z,76.50
2019-04-30T14:03:58.991Z,76.90
2019-04-30T14:06:30.538Z,77.20
2019-04-30T14:09:10.476Z,77.50
2019-04-30T14:11:39.786Z,77.70
2019-04-30T14:14:09.276Z,77.80
2019-04-30T14:16:40.298Z,77.70
2019-04-30T14:19:09.834Z,76.70
2019-04-30T14:21:39.335Z,76.70
2019-04-30T14:24:09.469Z,77.20
2019-04-30T14:26:39.228Z,78.00
2019-04-30T14:29:08.686Z,77.40
2019-04-30T14:31:38.827Z,77.30
2019-04-30T14:34:10.089Z,77.90
2019-04-30T14:36:41.262Z,77.20
2019-04-30T14:39:16.996Z,76.10
2019-04-30T14:41:42.971Z,76.40
2019-04-30T14:44:14.937Z,76.80
2019-04-30T14:46:59.320Z,77.50
2019-04-30T14:49:31.291Z,78.00
2019-04-30T14:52:01.294Z,77.70
2019-04-30T14:54:32.336Z,77.90
2019-04-30T14:57:03.385Z,78.00
2019-04-30T14:59:40.175Z,78.80
2019-04-30T15:02:19.916Z,78.60
2019-04-30T15:04:50.884Z,78.50
2019-04-30T15:07:22.707Z,78.00
2019-04-30T15:09:52.043Z,77.80
2019-04-30T15:12:24.327Z,76.70
2019-04-30T15:14:53.707Z,76.50
2019-04-30T15:17:24.535Z,76.80
2019-04-30T15:19:54.578Z,77.80
2019-04-30T15:22:23.971Z,78.40
2019-04-30T15:24:53.287Z,78.00
2019-04-30T15:27:22.696Z,78.90
2019-04-30T15:29:57.058Z,78.20
2019-04-30T15:32:23.325Z,77.30
2019-04-30T15:34:52.702Z,77.20
2019-04-30T15:37:23.993Z,77.10
2019-04-30T15:39:53.207Z,76.90
2019-04-30T15:42:24.227Z,77.60
2019-04-30T15:44:53.627Z,77.00
2019-04-30T15:47:24.718Z,77.20
2019-04-30T15:49:55.698Z,77.60
2019-04-30T15:52:28.875Z,77.60
2019-04-30T15:55:01.248Z,77.20
2019-04-30T15:57:34.757Z,77.90
2019-04-30T16:00:07.425Z,77.60
2019-04-30T16:02:38.862Z,78.00
2019-04-30T16:05:15.746Z,78.40
2019-04-30T16:07:53.327Z,78.50
2019-04-30T16:10:30.343Z,78.80
2019-04-30T16:13:11.525Z,79.40
2019-04-30T16:15:43.597Z,79.50
2019-04-30T16:18:15.934Z,79.40
2019-04-30T16:20:45.427Z,79.60
2019-04-30T16:23:19.161Z,78.90
2019-04-30T16:25:53.291Z,78.90
2019-04-30T16:28:22.586Z,78.80
2019-04-30T16:30:52.077Z,79.10
2019-04-30T16:33:21.487Z,79.60
2019-04-30T16:35:55.297Z,80.00
2019-04-30T16:38:24.649Z,80.00
2019-04-30T16:40:53.981Z,80.40
2019-04-30T16:43:23.875Z,80.50
2019-04-30T16:45:53.397Z,80.20
2019-04-30T16:48:22.853Z,80.50
2019-04-30T16:50:52.309Z,80.10
2019-04-30T16:53:21.617Z,80.10
2019-04-30T16:55:50.981Z,79.80
2019-04-30T16:58:20.719Z,79.70
2019-04-30T17:00:50.179Z,79.80
2019-04-30T17:03:28.714Z,80.00
2019-04-30T17:06:00.659Z,80.50
2019-04-30T17:08:45.367Z,80.70
2019-04-30T17:11:32.529Z,81.00
2019-04-30T17:14:02.613Z,81.20
2019-04-30T17:16:33.605Z,81.10
2019-04-30T17:19:03.377Z,81.50
2019-04-30T17:21:34.422Z,82.20
2019-04-30T17:24:04.889Z,81.70
2019-04-30T17:26:34.298Z,82.80
2019-04-30T17:29:04.967Z,82.40
2019-04-30T17:31:34.295Z,83.80
2019-04-30T17:34:05.145Z,82.50
2019-04-30T17:36:35.345Z,82.60
2019-04-30T17:39:09.375Z,82.80
2019-04-30T17:41:41.915Z,82.80
2019-04-30T17:44:11.284Z,83.00
2019-04-30T17:46:40.739Z,83.10
2019-04-30T17:49:10.392Z,83.10
2019-04-30T17:51:41.508Z,83.50
2019-04-30T17:54:16.999Z,83.70
2019-04-30T17:56:48.537Z,83.30
2019-04-30T17:59:18.197Z,83.60
2019-04-30T18:01:51.065Z,83.20
2019-04-30T18:04:22.685Z,83.60
2019-04-30T18:06:52.743Z,83.70
2019-04-30T18:09:24.743Z,83.30
2019-04-30T18:11:59.689Z,83.90
2019-04-30T18:14:29.723Z,84.20
2019-04-30T18:16:59.519Z,83.70
2019-04-30T18:19:45.459Z,84.10
2019-04-30T18:22:35.704Z,84.10
2019-04-30T18:25:13.037Z,84.10
2019-04-30T18:27:46.327Z,84.30
2019-04-30T18:30:16.943Z,83.90
2019-04-30T18:32:46.387Z,84.60
2019-04-30T18:35:15.745Z,84.40
2019-04-30T18:37:45.111Z,84.40
2019-04-30T18:40:18.640Z,85.00
2019-04-30T18:42:49.471Z,84.20
2019-04-30T18:45:19.514Z,84.00
2019-04-30T18:47:48.901Z,84.10
2019-04-30T18:50:18.389Z,84.40
2019-04-30T18:52:48.717Z,83.90
2019-04-30T18:55:19.683Z,84.10
2019-04-30T18:57:56.700Z,84.70
2019-04-30T19:00:26.551Z,84.30
2019-04-30T19:02:58.535Z,84.00
2019-04-30T19:05:30.916Z,84.20
2019-04-30T19:08:01.362Z,84.80
2019-04-30T19:10:37.559Z,85.10
2019-04-30T19:13:09.248Z,85.60
2019-04-30T19:16:18.133Z,84.60
2019-04-30T19:18:24.995Z,85.30
2019-04-30T19:20:56.437Z,85.20
2019-04-30T19:23:25.723Z,84.70
2019-04-30T19:25:59.578Z,85.10
2019-04-30T19:28:28.826Z,85.60
2019-04-30T19:31:00.940Z,84.80
2019-04-30T19:33:31.192Z,85.60
2019-04-30T19:36:00.498Z,85.70
2019-04-30T19:38:29.789Z,85.40
2019-04-30T19:40:59.259Z,86.40
2019-04-30T19:43:28.702Z,85.30
2019-04-30T19:46:00.973Z,85.50
2019-04-30T19:48:32.897Z,85.30
2019-04-30T19:51:03.230Z,85.80
2019-04-30T19:53:32.608Z,85.80
2019-04-30T19:56:02.013Z,85.60
2019-04-30T19:58:48.083Z,86.20
2019-04-30T20:01:06.103Z,85.60
2019-04-30T20:03:35.394Z,86.00
2019-04-30T20:06:04.823Z,85.70
2019-04-30T20:08:35.287Z,85.50
2019-04-30T20:11:04.873Z,86.30
2019-04-30T20:13:37.311Z,85.90
2019-04-30T20:16:09.593Z,85.90
2019-04-30T20:18:39.167Z,85.70
2019-04-30T20:21:10.230Z,86.10
2019-04-30T20:23:39.602Z,86.20
2019-04-30T20:26:11.668Z,85.70
2019-04-30T20:28:42.511Z,86.90
2019-04-30T20:31:11.962Z,86.60
2019-04-30T20:33:41.258Z,86.50
2019-04-30T20:36:13.355Z,85.80
2019-04-30T20:38:44.276Z,85.90
2019-04-30T20:41:13.667Z,85.50
2019-04-30T20:43:43.772Z,85.90
2019-04-30T20:46:13.154Z,85.70
2019-04-30T20:48:42.526Z,86.40
2019-04-30T20:51:11.924Z,86.40
2019-04-30T20:53:41.290Z,86.20
2019-04-30T20:56:10.659Z,86.00
2019-04-30T20:58:54.544Z,85.80
2019-04-30T21:01:11.994Z,85.70
2019-04-30T21:03:44.370Z,85.50
2019-04-30T21:06:13.914Z,86.30
2019-04-30T21:08:43.350Z,86.30
2019-04-30T21:11:12.746Z,86.70
2019-04-30T21:13:42.348Z,87.60
2019-04-30T21:16:13.632Z,87.50
2019-04-30T21:18:44.348Z,86.50
2019-04-30T21:21:14.722Z,86.40
2019-04-30T21:23:44.604Z,85.90
2019-04-30T21:26:13.994Z,85.50
2019-04-30T21:28:43.394Z,85.50
2019-04-30T21:31:29.524Z,85.50
2019-04-30T21:34:00.641Z,85.70
2019-04-30T21:36:30.120Z,85.90
2019-04-30T21:38:59.441Z,85.40
2019-04-30T21:41:29.653Z,85.80
2019-04-30T21:43:59.140Z,86.00
2019-04-30T21:46:29.351Z,86.80
2019-04-30T21:48:58.851Z,86.40
2019-04-30T21:51:28.251Z,86.80
2019-04-30T21:53:57.698Z,86.70
2019-04-30T21:56:27.644Z,87.10
2019-04-30T21:59:00.293Z,88.10
2019-04-30T22:01:30.018Z,87.90
2019-04-30T22:03:59.394Z,87.20
2019-04-30T22:06:32.375Z,88.30
2019-04-30T22:09:01.684Z,88.60
2019-04-30T22:11:30.986Z,87.30
2019-04-30T22:14:00.774Z,87.10
2019-04-30T22:16:33.926Z,87.10
2019-04-30T22:19:03.306Z,87.30
2019-04-30T22:21:35.604Z,87.10
2019-04-30T22:24:05.006Z,87.00
2019-04-30T22:26:34.563Z,86.90
2019-04-30T22:29:06.832Z,87.20
2019-04-30T22:31:36.224Z,86.80
2019-04-30T22:34:05.748Z,86.60
2019-04-30T22:36:38.646Z,86.80
2019-04-30T22:39:12.239Z,87.00
2019-04-30T22:41:44.331Z,86.80
2019-04-30T22:44:13.800Z,86.50
2019-04-30T22:46:43.202Z,86.20
2019-04-30T22:49:12.610Z,85.80
2019-04-30T22:51:41.994Z,85.70
2019-04-30T22:54:12.309Z,85.40
2019-04-30T22:56:44.312Z,85.40
2019-04-30T22:59:13.654Z,85.30
2019-04-30T23:01:53.446Z,85.10
2019-04-30T23:04:26.950Z,85.20
2019-04-30T23:06:56.320Z,85.00
2019-04-30T23:09:28.538Z,85.10
2019-04-30T23:12:00.980Z,85.10
2019-04-30T23:14:30.372Z,85.30
2019-04-30T23:17:03.894Z,85.70
2019-04-30T23:19:33.272Z,85.30
2019-04-30T23:22:02.647Z,86.10
2019-04-30T23:24:35.920Z,85.70
2019-04-30T23:27:07.112Z,85.80
2019-04-30T23:29:38.290Z,85.50
2019-04-30T23:32:07.654Z,85.40
2019-04-30T23:34:36.976Z,85.30
2019-04-30T23:37:07.160Z,85.10
2019-04-30T23:39:39.228Z,86.40
2019-04-30T23:42:11.223Z,86.20
2019-04-30T23:44:43.763Z,86.30
2019-04-30T23:47:13.043Z,86.60
2019-04-30T23:49:42.369Z,87.20
2019-04-30T23:52:11.678Z,86.80
2019-04-30T23:54:40.964Z,87.30
2019-04-30T23:57:10.356Z,87.90
2019-04-30T23:59:39.821Z,88.60
